• Join FlightAware (Why Join?)
  • Login
  • US Flag 
04:19AM EST


 

Airport Tracker/Info


-or-


 

Live Flight TrackerFlight Track Log ✈ VOZ989 ✈ 03-May-2013 ✈ YSSY / SYD - YBBN / BNE

Flight Track Log - Related Links

Times and Time Zones

All times are in EDT time to prevent confusion due to time zone crossing. See the VOZ989 flight status page for this flight to view local times or setup timezone preferences in your user account.

Time Position Orientation Groundspeed Altitude Reporting Facility
EDT Latitude Longitude Course Direction KTS MPH feet Rate Location/Type
06:06AM -33.9400 151.1780 168° South 15 17  Level FlightAware
06:07AM -33.9420 151.1790 157° South 16 18  Level FlightAware
06:07AM -33.9440 151.1790 180° South 12 14  Level FlightAware
06:07AM -33.9450 151.1790 180° South 16 18  Level FlightAware
06:08AM -33.9460 151.1790 180° South 16 18  Level FlightAware
06:08AM -33.9480 151.1790 180° South 17 20  Level FlightAware
06:08AM -33.9500 151.1800 157° South 19 22  Level FlightAware
06:09AM -33.9510 151.1810 140° Southeast 16 18  Level FlightAware
06:09AM -33.9510 151.1830 90° East 17 20  Level FlightAware
06:10AM -33.9520 151.1870 107° East 19 22  Level FlightAware
06:10AM -33.9530 151.1870 180° South 19 22  Level FlightAware
06:11AM -33.9560 151.1880 165° South 23 26  Level FlightAware
06:11AM -33.9590 151.1890 165° South 26 30  Level FlightAware
06:11AM -33.9610 151.1890 180° South 25 29  Level FlightAware
06:12AM -33.9640 151.1900 165° South 25 29  Level FlightAware
06:12AM -33.9650 151.1900 180° South 22 25  Level FlightAware
06:12AM -33.9670 151.1910 157° South 19 22  Level FlightAware
06:13AM -33.9700 151.1910 180° South 17 20  Level FlightAware
06:14AM -33.9710 151.1920 140° Southeast 11 13  Level FlightAware
06:14AM -33.9710 151.1930 90° East 60 Level FlightAware
06:16AM -33.9700 151.1930 360° North 40 46 60 Level FlightAware
06:17AM -33.9500 151.1880 348° North 165 190 200 1,320 Climbing FlightAware
06:17AM -33.9390 151.1860 351° North 149 171 1,100 3,000 Climbing FlightAware
06:17AM -33.9290 151.1910 23° Northeast 160 184 1,700 1,620 Climbing FlightAware
06:18AM -33.9110 151.2070 36° Northeast 205 236 2,200 1,320 Climbing FlightAware
06:18AM -33.8990 151.2180 37° Northeast 223 257 2,600 1,860 Climbing FlightAware
06:18AM -33.8750 151.2380 35° Northeast 240 276 3,600 1,800 Climbing FlightAware
06:18AM -33.8650 151.2470 37° Northeast 264 304 3,800 1,500 Climbing FlightAware
06:19AM -33.8355 151.2734 37° Northeast 284 327 4,400 960 Climbing Aus ATC (RADAR)
06:19AM -33.8310 151.2790 37° Northeast 307 353 4,300 300 Descending FlightAware
06:19AM -33.8220 151.2930 52° Northeast 307 353 4,500 1,500 Climbing FlightAware
06:19AM -33.8102 151.3307 52° Northeast 329 379 5,000 780 Climbing Aus ATC (RADAR)
06:20AM -33.8060 151.3490 52° Northeast 307 353 4,900 -240 Descending FlightAware
06:20AM -33.7950 151.3790 66° East 355 409 4,900 180 Level FlightAware
06:20AM -33.7790 151.3990 46° Northeast 347 399 5,000 1,560 Climbing FlightAware
06:20AM -33.7570 151.4120 26° Northeast 338 389 5,700 3,720 Climbing FlightAware
06:21AM -33.7190 151.4270 18° North 321 369 7,500 4,020 Climbing FlightAware
06:21AM -33.6770 151.4430 18° North 320 368 9,400 2,820 Climbing FlightAware
06:22AM -33.6250 151.4650 19° North 328 377 10,800 2,820 Climbing FlightAware
06:22AM -33.5825 151.4818 19° North 340 391 12,300 3,300 Climbing Aus ATC (RADAR)
06:23AM -33.5580 151.4910 19° North 344 396 13,000 3,000 Climbing FlightAware
06:23AM -33.5296 151.5029 19° North 346 398 14,100 2,880 Climbing Aus ATC (RADAR)
06:23AM -33.4910 151.5180 19° North 344 396 15,200 2,640 Climbing FlightAware
06:24AM -33.4439 151.5370 19° North 361 415 16,500 1,860 Climbing Aus ATC (RADAR)
06:24AM -33.4480 151.5350 19° North 362 417 16,300 2,760 Descending FlightAware
06:24AM -33.4197 151.5468 19° North 366 421 17,200 2,700 Climbing Aus ATC (RADAR)
06:25AM -33.3820 151.5620 19° North 374 430 18,100 2,640 Climbing FlightAware
06:25AM -33.3634 151.5697 19° North 369 425 18,700 2,280 Climbing Aus ATC (RADAR)
06:25AM -33.3030 151.5930 18° North 388 447 20,000 2,280 Climbing FlightAware
06:26AM -33.2428 151.6165 18° North 393 452 21,400 1,920 Climbing Aus ATC (RADAR)
06:26AM -33.2410 151.6170 18° North 396 456 21,300 2,400 Descending FlightAware
06:26AM -33.1812 151.6403 18° North 399 459 22,800 2,580 Climbing Aus ATC (RADAR)
06:27AM -33.0812 151.6796 18° North 417 480 24,400 1,800 Climbing Aus ATC (RADAR)
06:28AM -33.0533 151.6908 19° North 421 484 24,900 2,040 Climbing Aus ATC (RADAR)
06:28AM -32.9877 151.7170 19° North 429 494 26,100 1,800 Climbing Aus ATC (RADAR)
06:29AM -32.8818 151.7581 18° North 440 506 27,600 1,560 Climbing Aus ATC (RADAR)
06:30AM -32.8230 151.7812 18° North 444 511 28,400 1,320 Climbing Aus ATC (RADAR)
06:31AM -32.6720 151.8396 18° North 461 531 30,000 1,260 Climbing Aus ATC (RADAR)
06:31AM -32.6410 151.8512 18° North 465 535 30,300 1,200 Climbing Aus ATC (RADAR)
06:32AM -32.5676 151.8801 18° North 475 547 31,000 1,200 Climbing Aus ATC (RADAR)
06:33AM -32.4503 151.9256 18° North 485 558 32,100 1,080 Climbing Aus ATC (RADAR)
06:33AM -32.3743 151.9549 18° North 492 566 32,700 1,320 Climbing Aus ATC (RADAR)
06:34AM -32.2550 152.0014 18° North 492 566 34,100 1,440 Climbing Aus ATC (RADAR)
06:35AM -32.1799 152.0306 18° North 489 563 34,900 1,020 Climbing Aus ATC (RADAR)
06:36AM -32.0170 152.0931 18° North 493 567 36,000 960 Climbing Aus ATC (RADAR)
06:37AM -31.9073 152.1348 18° North 498 573 36,900 840 Climbing Aus ATC (RADAR)
06:38AM -31.7962 152.1769 18° North 502 578 37,500 1,080 Climbing Aus ATC (RADAR)
06:38AM -31.7189 152.2061 18° North 500 575 38,500 1,080 Climbing Aus ATC (RADAR)
06:38AM -31.7100 152.2090 18° North 491 565 38,300 360 Descending FlightAware
06:39AM -31.6210 152.2430 18° North 490 564 38,800 900 Climbing FlightAware
06:39AM -31.5683 152.2635 18° North 487 560 39,200 300 Climbing Aus ATC (RADAR)
06:40AM -31.5310 152.2770 18° North 494 568 39,000 -180 Descending FlightAware
06:41AM -31.4000 152.3260 18° North 499 574 39,000 120 Level FlightAware
06:41AM -31.3384 152.3501 18° North 496 571 39,200  Climbing Aus ATC (RADAR)
06:42AM -31.2900 152.3680 18° North 498 573 39,000 -180 Descending FlightAware
06:42AM -31.1970 152.4030 18° North 499 574 39,000 300 Level FlightAware
06:43AM -31.1404 152.4245 18° North 493 567 39,300  Climbing Aus ATC (RADAR)
06:43AM -31.0940 152.4410 18° North 500 575 39,000 -300 Descending FlightAware
06:44AM -31.0220 152.4680 18° North 502 578 39,000 240 Level FlightAware
06:44AM -30.9414 152.4986 18° North 497 572 39,300  Climbing Aus ATC (RADAR)
06:44AM -30.9120 152.5080 18° North 502 578 39,000 -240 Descending FlightAware
06:45AM -30.7690 152.5630 18° North 503 579 39,000 240 Level FlightAware
06:45AM -30.7528 152.5693 18° North 499 574 39,300 480 Climbing Aus ATC (RADAR)
06:46AM -30.6863 152.5941 18° North 499 574 39,300  Level Aus ATC (RADAR)
06:46AM -30.6526 152.6062 17° North 501 577 39,300 -1,200 Level Aus ATC (RADAR)
06:46AM -30.6610 152.6030 17° North 507 583 39,000  Descending FlightAware
06:47AM -30.5760 152.6358 17° North 506 582 39,300  Climbing Aus ATC (RADAR)
06:47AM -30.5690 152.6380 17° North 509 586 39,000  Descending FlightAware
06:48AM -30.4612 152.6754 17° North 506 582 39,300  Climbing Aus ATC (RADAR)
06:48AM -30.4670 152.6750 17° North 510 587 39,000 -480 Descending FlightAware
06:48AM -30.3830 152.7060 18° North 511 588 39,000  Level FlightAware
06:49AM -30.2840 152.7430 18° North 512 589 39,000 240 Level FlightAware
06:49AM -30.2130 152.7668 18° North 509 586 39,300  Climbing Aus ATC (RADAR)
06:50AM -30.1880 152.7780 18° North 513 590 39,000 -180 Descending FlightAware
06:50AM -30.1347 152.7967 18° North 504 580 39,200  Climbing Aus ATC (RADAR)
06:50AM -30.0940 152.8120 18° North 512 589 39,000 -120 Descending FlightAware
06:51AM -30.0100 152.8406 18° North 506 582 39,100 -540 Climbing Aus ATC (RADAR)
06:51AM -29.9940 152.8480 18° North 510 587 38,600 -1,140 Descending FlightAware
06:52AM -29.8989 152.8820 18° North 496 571 38,200 -1,080 Descending Aus ATC (RADAR)
06:52AM -29.9030 152.8820 18° North 499 574 37,900 -1,500 Descending FlightAware
06:52AM -29.8150 152.9140 18° North 490 564 37,200 -900 Descending FlightAware
06:53AM -29.7592 152.9347 18° North 480 552 37,000 -660 Descending Aus ATC (RADAR)
06:53AM -29.7279 152.9473 19° North 476 548 36,800 -1,440 Descending Aus ATC (RADAR)
06:53AM -29.7200 152.9490 19° North 481 554 36,500 -1,080 Descending FlightAware
06:54AM -29.6543 152.9721 19° North 477 549 36,200 -1,080 Descending Aus ATC (RADAR)
06:54AM -29.6350 152.9800 19° North 470 541 35,800 -1,080 Descending FlightAware
06:54AM -29.5708 153.0030 19° North 463 533 35,500 -1,080 Descending Aus ATC (RADAR)
06:55AM -29.5450 153.0120 19° North 461 531 35,000 -1,500 Descending FlightAware
06:55AM -29.4620 153.0420 17° North 449 517 34,100 -1,260 Descending FlightAware
06:56AM -29.3716 153.0734 17° North 435 501 33,300 -1,380 Descending Aus ATC (RADAR)
06:56AM -29.3750 153.0740 17° North 432 497 33,100 -1,440 Descending FlightAware
06:57AM -29.3000 153.1020 18° North 415 478 32,300 -1,140 Descending FlightAware
06:57AM -29.2300 153.1260 17° North 399 459 31,600 -900 Descending FlightAware
06:58AM -29.1831 153.1424 17° North 394 453 31,400 -1,080 Descending Aus ATC (RADAR)
06:58AM -29.1500 153.1550 17° North 380 437 30,800 -1,200 Descending FlightAware
06:59AM -29.1083 153.1720 17° North 370 426 30,500 -1,200 Descending Aus ATC (RADAR)
06:59AM -29.0650 153.1860 17° North 358 412 29,700 -1,080 Descending FlightAware
07:00AM -29.0040 153.2080 18° North 367 422 29,300 -480 Descending FlightAware
07:00AM -28.9718 153.2234 18° North 359 413 29,300 -720 Level Aus ATC (RADAR)
07:00AM -28.9270 153.2350 18° North 370 426 28,700 -960 Descending FlightAware
07:01AM -28.8570 153.2600 17° North 368 423 28,200 -540 Descending FlightAware
07:01AM -28.8239 153.2743 17° North 363 418 28,200 -420 Level Aus ATC (RADAR)
07:02AM -28.7997 153.2823 16° North 361 415 28,000 -1,140 Descending Aus ATC (RADAR)
07:02AM -28.7880 153.2850 16° North 357 411 27,700 -900 Descending FlightAware
07:02AM -28.7446 153.3004 16° North 356 410 27,500 -1,200 Descending Aus ATC (RADAR)
07:02AM -28.7290 153.3060 16° North 351 404 27,000 -1,320 Descending FlightAware
07:03AM -28.6696 153.3325 16° North 339 390 26,400 -1,200 Descending Aus ATC (RADAR)
07:03AM -28.6630 153.3290 16° North 335 386 26,100 -1,440 Descending FlightAware
07:04AM -28.6070 153.3490 16° North 336 387 25,400 -960 Descending FlightAware
07:04AM -28.6007 153.3539 16° North 335 386 25,500 -1,320 Climbing Aus ATC (RADAR)
07:05AM -28.5340 153.3750 17° North 320 368 24,300 -1,320 Descending FlightAware
07:05AM -28.4989 153.3894 17° North 323 372 24,000 -1,080 Descending Aus ATC (RADAR)
07:05AM -28.4850 153.3920 17° North 322 371 23,600 -1,500 Descending FlightAware
07:06AM -28.4220 153.4140 17° North 317 365 22,600 -1,260 Descending FlightAware
07:07AM -28.3656 153.4350 17° North 313 360 22,000 -1,380 Descending Aus ATC (RADAR)
07:07AM -28.3570 153.4380 17° North 309 356 21,600 -1,320 Descending FlightAware
07:07AM -28.2977 153.4597 17° North 307 353 20,900 -1,380 Descending Aus ATC (RADAR)
07:07AM -28.3010 153.4570 17° North 306 352 20,600 -1,200 Descending FlightAware
07:08AM -28.2433 153.4793 17° North 305 351 20,100 -1,200 Descending Aus ATC (RADAR)
07:08AM -28.2450 153.4770 17° North 301 346 19,800 -1,200 Descending FlightAware
07:09AM -28.1962 153.4955 17° North 304 350 19,400 -1,080 Descending Aus ATC (RADAR)
07:09AM -28.1850 153.4970 17° North 295 339 19,000 -960 Descending FlightAware
07:09AM -28.1470 153.5000 North 330 380 18,800 -300 Descending FlightAware
07:10AM -28.1154 153.4954 North 336 387 18,800 -420 Level Aus ATC (RADAR)
07:10AM -28.0915 153.4909 351° North 342 394 18,600 -1,500 Descending Aus ATC (RADAR)
07:10AM -28.0810 153.4880 351° North 354 407 18,100 -1,200 Descending FlightAware
07:10AM -28.0346 153.4807 351° North 355 409 17,900 -1,200 Descending Aus ATC (RADAR)
07:11AM -28.0110 153.4760 351° North 350 403 17,300 -1,500 Descending FlightAware
07:11AM -27.9473 153.4652 351° North 346 398 16,600 -1,500 Descending Aus ATC (RADAR)
07:11AM -27.9470 153.4650 351° North 343 395 16,300 -1,740 Descending FlightAware
07:12AM -27.8770 153.4530 351° North 335 386 15,200 -1,500 Descending FlightAware
07:13AM -27.8170 153.4420 351° North 329 379 14,200 -1,320 Descending FlightAware
07:13AM -27.7869 153.4370 351° North 327 376 14,000 -1,500 Descending Aus ATC (RADAR)
07:13AM -27.7560 153.4310 351° North 320 368 13,200 -1,500 Descending FlightAware
07:14AM -27.7209 153.4256 351° North 319 367 12,900 -1,380 Descending Aus ATC (RADAR)
07:14AM -27.6920 153.4200 351° North 313 360 12,200 -1,440 Descending FlightAware
07:15AM -27.6495 153.4124 351° North 310 357 11,700 -1,500 Descending Aus ATC (RADAR)
07:15AM -27.6340 153.4090 351° North 308 354 11,200 -1,380 Descending FlightAware
07:15AM -27.6002 153.4029 351° North 308 354 10,900 -1,620 Descending Aus ATC (RADAR)
07:16AM -27.5740 153.3970 351° North 305 351 10,000 -1,860 Descending FlightAware
07:16AM -27.5370 153.3910 352° North 305 351 9,400 -1,320 Descending FlightAware
07:16AM -27.5029 153.3836 352° North 306 352 9,000 -1,620 Descending Aus ATC (RADAR)
07:17AM -27.4940 153.3830 352° North 303 349 8,600 -1,740 Descending FlightAware
07:17AM -27.4530 153.3750 350° North 299 344 7,900 -1,560 Descending FlightAware
07:17AM -27.4190 153.3680 350° North 298 343 7,200 -1,560 Descending FlightAware
07:18AM -27.3790 153.3610 351° North 296 341 6,500 -1,200 Descending FlightAware
07:18AM -27.3459 153.3545 351° North 296 341 6,200 -1,440 Descending Aus ATC (RADAR)
07:18AM -27.3440 153.3540 351° North 294 338 5,900 -1,440 Descending FlightAware
07:19AM -27.3056 153.3469 351° North 294 338 5,500 -1,200 Descending Aus ATC (RADAR)
07:19AM -27.3060 153.3470 351° North 291 335 5,300 -840 Descending FlightAware
07:19AM -27.2720 153.3390 348° North 274 315 5,100 -600 Descending FlightAware
07:20AM -27.2560 153.3290 331° Northwest 264 304 4,900 -840 Descending FlightAware
07:20AM -27.2270 153.3060 325° Northwest 250 288 4,500 -720 Descending FlightAware
07:20AM -27.2150 153.2950 325° Northwest 242 278 4,400 360 Descending FlightAware
07:20AM -27.2105 153.2901 325° Northwest 248 285 4,600 -1,200 Climbing Aus ATC (RADAR)
07:21AM -27.2080 153.2790 296° West 232 267 4,100 -1,440 Descending FlightAware
07:21AM -27.2100 153.2480 266° West 222 255 3,700 -1,200 Descending FlightAware
07:21AM -27.2160 153.2260 253° West 211 243 3,200 -1,440 Descending FlightAware
07:21AM -27.2240 153.2200 214° Southwest 206 237 3,000 -1,080 Descending FlightAware
07:22AM -27.2490 153.2060 206° Southwest 199 229 2,500 -1,140 Descending FlightAware
07:22AM -27.2740 153.1920 206° Southwest 187 215 1,900 -1,140 Descending FlightAware
07:23AM -27.2930 153.1810 207° Southwest 170 196 1,500 -720 Descending FlightAware
07:23AM -27.3082 153.1721 207° Southwest 168 193 1,400 -720 Descending Aus ATC (RADAR)
07:23AM -27.3090 153.1720 207° Southwest 159 183 1,200 -1,200 Descending FlightAware
07:24AM -27.3230 153.1640 207° Southwest 150 173 900 -840 Descending FlightAware
07:24AM -27.3370 153.1560 207° Southwest 143 165 600 -780 Descending FlightAware
07:24AM -27.3460 153.1510 206° Southwest 142 163 400 -360 Descending FlightAware
07:25AM -27.3594 153.1431 206° Southwest 142 163 400  Level Aus ATC (RADAR)
07:25AM -27.3640 153.1410 206° Southwest 140 161 -2,400 Descending FlightAware
07:25AM -27.3780 153.1320 210° Southwest 140 161  Level FlightAware
07:26AM -27.3890 153.1260 206° Southwest 46 53  Level FlightAware
07:26AM -27.3900 153.1240 241° Southwest 31 36  Level FlightAware
07:26AM -27.3910 153.1220 241° Southwest 17 20  Level FlightAware
07:26AM -27.3910 153.1210 270° West 16 18  Level FlightAware
07:27AM -27.3890 153.1220 24° Northeast 13 15  Level FlightAware